Time;durP1;ratioP1;P1;durP2;ratioP2;P2;SDS_P1;SDS_P2;PMS_P1;PMS_P2;Temp;Humidity;BMP_temperature;BMP_pressure;BME280_temperature;BME280_humidity;BME280_pressure;Samples;Min_cycle;Max_cycle;Signal;HPM_P1;HPM_P2
2022/05/24 00:01:13;;;;;;;2.65;1.50;;;;;;;19.16;88.20;94683.31;4989609;28;20856;-82
2022/05/24 00:03:39;;;;;;;2.50;1.50;;;;;;;19.23;87.50;94681.28;4982928;28;20258;-81
2022/05/24 00:06:06;;;;;;;2.83;1.65;;;;;;;19.24;87.24;94691.44;4984526;28;20223;-82
2022/05/24 00:08:33;;;;;;;2.60;1.35;;;;;;;19.27;86.80;94688.34;4979108;28;20209;-81
2022/05/24 00:11:01;;;;;;;2.53;1.60;;;;;;;19.13;88.21;94687.22;4985285;28;20215;-83
2022/05/24 00:13:28;;;;;;;2.42;1.40;;;;;;;19.07;88.54;94685.59;4983620;28;20205;-83
2022/05/24 00:15:54;;;;;;;1.52;1.40;;;;;;;19.13;88.50;94686.44;4992403;28;20250;-83
2022/05/24 00:18:23;;;;;;;2.50;1.58;;;;;;;19.16;88.93;94683.31;4985026;28;20708;-81
2022/05/24 00:20:52;;;;;;;3.08;1.70;;;;;;;19.23;87.87;94687.28;4976376;28;20259;-83
2022/05/24 00:23:21;;;;;;;3.35;1.67;;;;;;;19.26;86.82;94691.19;4984419;28;20204;-84
2022/05/24 00:25:50;;;;;;;1.60;1.50;;;;;;;19.23;87.24;94687.28;4975546;28;20223;-80
2022/05/24 00:28:18;;;;;;;2.40;1.60;;;;;;;19.18;89.52;94692.47;4985703;28;20274;-83
2022/05/24 00:30:46;;;;;;;2.00;1.60;;;;;;;19.20;88.04;94684.41;4987303;28;20232;-82
2022/05/24 00:33:13;;;;;;;2.70;1.58;;;;;;;19.20;87.75;94684.41;4986051;28;20208;-82
2022/05/24 00:35:39;;;;;;;2.20;1.50;;;;;;;19.21;88.18;94680.75;4983852;28;20250;-80
2022/05/24 00:38:10;;;;;;;5.10;1.73;;;;;;;19.21;88.65;94680.75;4985197;28;20219;-82
2022/05/24 00:40:43;;;;;;;2.00;1.67;;;;;;;19.24;88.55;94673.16;4988189;28;20624;-83
2022/05/24 00:43:15;;;;;;;1.70;1.42;;;;;;;19.25;87.65;94681.78;4975045;28;20197;-82
2022/05/24 00:45:46;;;;;;;4.63;1.80;;;;;;;19.23;88.40;94679.47;4981034;28;20227;-83
2022/05/24 00:48:19;;;;;;;3.88;1.88;;;;;;;19.08;88.55;94681.94;4985170;28;20192;-82
2022/05/24 00:50:49;;;;;;;3.88;1.92;;;;;;;19.02;89.63;94679.56;4987650;28;20275;-82
2022/05/24 00:53:21;;;;;;;2.40;1.70;;;;;;;18.90;91.25;94687.56;4985594;28;20191;-84
2022/05/24 00:55:52;;;;;;;3.78;2.13;;;;;;;18.93;91.32;94685.25;4988067;28;20286;-84
2022/05/24 00:58:25;;;;;;;1.67;1.50;;;;;;;18.96;90.53;94686.56;4984754;28;20598;-83
2022/05/24 01:00:54;;;;;;;4.03;2.00;;;;;;;18.97;91.87;94688.16;4987344;28;20225;-83
2022/05/24 01:03:23;;;;;;;3.42;1.83;;;;;;;19.05;90.12;94681.69;4983438;28;20204;-81
2022/05/24 01:05:49;;;;;;;2.20;1.80;;;;;;;18.95;90.08;94685.00;4979758;28;20743;-82
2022/05/24 01:08:16;;;;;;;5.03;2.08;;;;;;;18.87;92.18;94685.44;4983781;28;20199;-82
2022/05/24 01:10:48;;;;;;;2.67;1.80;;;;;;;18.77;91.95;94688.78;4980459;28;20274;-81
2022/05/24 01:13:17;;;;;;;4.70;1.95;;;;;;;18.75;92.53;94680.41;4983584;28;20195;-81
2022/05/24 01:15:44;;;;;;;4.20;1.73;;;;;;;18.84;91.98;94683.38;4978311;28;20227;-83
2022/05/24 01:18:13;;;;;;;2.58;1.90;;;;;;;18.82;90.70;94682.81;4984344;28;20695;-82
2022/05/24 01:20:43;;;;;;;3.80;2.10;;;;;;;18.79;91.15;94678.09;4980920;28;20231;-83
2022/05/24 01:23:23;;;;;;;3.05;1.80;;;;;;;18.88;90.99;94673.97;4971799;28;20204;-82
2022/05/24 01:25:59;;;;;;;2.80;1.70;;;;;;;18.94;91.62;94681.59;4981985;28;20735;-81
2022/05/24 01:28:32;;;;;;;6.10;2.30;;;;;;;18.96;90.39;94670.91;4978799;28;20836;-81
2022/05/24 01:31:00;;;;;;;2.60;1.90;;;;;;;18.98;90.07;94667.03;4983668;28;20274;-82
2022/05/24 01:36:13;;;;;;;2.85;1.70;;;;;;;18.92;89.66;94672.47;4981544;28;20270;-83
2022/05/24 01:38:44;;;;;;;2.50;1.80;;;;;;;18.82;90.07;94665.34;4977764;28;20278;-82
2022/05/24 01:41:15;;;;;;;2.63;2.15;;;;;;;18.81;89.85;94669.00;4983749;28;20226;-83
2022/05/24 01:43:43;;;;;;;6.35;2.20;;;;;;;18.78;90.86;94664.28;4981005;28;20254;-82
2022/05/24 01:46:12;;;;;;;3.80;1.70;;;;;;;18.64;91.17;94665.75;4988501;28;20310;-83
2022/05/24 01:48:43;;;;;;;2.33;1.70;;;;;;;18.52;91.93;94657.25;4979548;28;20192;-83
2022/05/24 01:51:13;;;;;;;3.05;1.70;;;;;;;18.47;92.23;94668.41;4982781;28;20266;-83
2022/05/24 01:53:44;;;;;;;2.45;1.75;;;;;;;18.36;93.54;94663.38;4980019;28;20200;-83
2022/05/24 01:56:15;;;;;;;3.72;2.13;;;;;;;18.40;94.12;94651.44;4983138;28;20267;-81
2022/05/24 01:58:45;;;;;;;4.15;1.98;;;;;;;18.47;93.47;94659.84;4980267;28;20269;-82
2022/05/24 02:01:20;;;;;;;5.15;2.00;;;;;;;18.50;93.20;94657.50;4983833;28;20242;-82
2022/05/24 02:03:46;;;;;;;3.00;1.80;;;;;;;18.56;92.11;94663.56;4987838;28;20261;-82
2022/05/24 02:06:22;;;;;;;2.30;1.70;;;;;;;18.68;92.63;94658.19;4982043;28;20224;-83
2022/05/24 02:08:48;;;;;;;3.05;1.92;;;;;;;18.68;92.49;94660.78;4982213;28;20191;-83
2022/05/24 02:11:18;;;;;;;3.15;1.98;;;;;;;18.76;90.43;94647.31;4980353;28;20315;-82
2022/05/24 02:13:49;;;;;;;4.05;2.17;;;;;;;18.71;91.63;94650.66;4971560;28;20216;-82
2022/05/24 02:16:18;;;;;;;2.00;1.60;;;;;;;18.74;90.87;94654.59;4982211;28;20661;-82
2022/05/24 02:18:47;;;;;;;2.53;2.20;;;;;;;18.68;91.18;94647.75;4983406;28;20219;-84
2022/05/24 02:21:14;;;;;;;4.03;2.00;;;;;;;18.73;91.71;94647.81;4976223;28;20253;-83
2022/05/24 02:23:43;;;;;;;3.15;1.98;;;;;;;18.73;91.36;94645.19;4982550;28;20203;-83
2022/05/24 02:26:11;;;;;;;3.33;1.83;;;;;;;18.74;91.62;94641.56;4974750;28;20281;-83
2022/05/24 02:28:37;;;;;;;3.50;1.95;;;;;;;18.79;92.04;94641.59;4982462;28;20655;-81
2022/05/24 02:31:08;;;;;;;2.47;2.17;;;;;;;18.84;91.17;94632.00;4975967;28;20273;-81
2022/05/24 02:33:35;;;;;;;3.60;1.95;;;;;;;18.77;91.75;94628.81;4989699;28;20210;-83
2022/05/24 02:36:02;;;;;;;4.55;2.20;;;;;;;18.77;91.94;94620.19;4981065;28;20265;-82
2022/05/24 02:38:30;;;;;;;6.03;2.10;;;;;;;18.86;91.73;94639.53;4983421;28;20226;-82
2022/05/24 02:43:40;;;;;;;3.25;2.22;;;;;;;18.84;91.64;94628.59;4980056;28;20232;-81
2022/05/24 02:46:09;;;;;;;2.88;2.10;;;;;;;18.79;92.35;94631.94;4974763;28;20219;-82
2022/05/24 02:48:36;;;;;;;2.83;2.10;;;;;;;18.75;92.23;94624.88;4985175;28;20354;-81
2022/05/24 02:51:03;;;;;;;3.58;2.20;;;;;;;18.79;92.14;94624.13;4990091;28;20279;-82
2022/05/24 02:53:29;;;;;;;4.50;2.22;;;;;;;18.86;92.55;94616.06;4983824;28;20287;-82
2022/05/24 02:56:02;;;;;;;3.60;2.00;;;;;;;18.82;91.71;94615.03;4974579;28;20251;-82
2022/05/24 02:58:28;;;;;;;2.35;2.00;;;;;;;18.85;91.85;94619.75;4982878;28;20224;-83
2022/05/24 03:00:54;;;;;;;4.35;2.22;;;;;;;18.86;91.23;94614.25;4990626;28;20231;-83
2022/05/24 03:03:22;;;;;;;2.08;1.92;;;;;;;18.87;90.79;94625.47;4988100;28;20207;-81
2022/05/24 03:05:49;;;;;;;4.82;2.30;;;;;;;18.81;92.02;94616.84;4983801;28;20231;-83
2022/05/24 03:11:05;;;;;;;4.15;2.15;;;;;;;18.81;90.58;94616.84;4942684;28;20372;-83
2022/05/24 03:16:16;;;;;;;4.97;2.20;;;;;;;18.80;90.74;94617.09;4976031;28;20326;-82
2022/05/24 03:18:44;;;;;;;2.42;1.80;;;;;;;18.75;91.54;94620.44;4984219;28;20231;-81
2022/05/24 03:21:11;;;;;;;2.92;1.90;;;;;;;18.71;91.03;94619.38;4979444;28;20594;-82
2022/05/24 03:23:37;;;;;;;3.78;2.00;;;;;;;18.78;90.90;94619.16;4979275;28;20273;-83
2022/05/24 03:26:04;;;;;;;2.22;2.00;;;;;;;18.77;91.72;94617.59;4973593;28;20696;-81
2022/05/24 03:28:31;;;;;;;3.70;2.00;;;;;;;18.83;90.69;94616.59;4982714;28;20201;-83
2022/05/24 03:30:57;;;;;;;2.60;1.80;;;;;;;18.81;90.27;94627.28;4981867;28;20228;-82
2022/05/24 03:33:25;;;;;;;4.10;2.10;;;;;;;18.74;90.44;94623.28;4983186;28;20196;-83
2022/05/24 03:35:52;;;;;;;4.35;2.20;;;;;;;18.75;91.35;94628.25;4989599;28;20235;-82
2022/05/24 03:38:19;;;;;;;2.80;2.13;;;;;;;18.77;91.12;94622.81;4983251;28;20200;-81
2022/05/24 03:40:45;;;;;;;3.05;2.03;;;;;;;18.65;91.15;94620.38;4991108;28;20238;-81
2022/05/24 03:43:13;;;;;;;4.30;2.30;;;;;;;18.65;91.67;94619.59;4982777;28;20250;-81
2022/05/24 03:45:39;;;;;;;2.72;2.28;;;;;;;18.69;91.19;94613.59;4991050;28;20239;-84
2022/05/24 03:48:07;;;;;;;4.15;2.45;;;;;;;18.67;91.29;94618.28;4982337;28;20207;-81
2022/05/24 03:50:33;;;;;;;3.67;2.10;;;;;;;18.69;90.78;94611.00;4981449;28;20263;-81
2022/05/24 03:53:01;;;;;;;3.40;2.13;;;;;;;18.72;89.96;94617.53;4981495;28;20833;-83
2022/05/24 03:55:27;;;;;;;3.30;2.10;;;;;;;18.75;90.53;94607.41;4982407;28;20220;-82
2022/05/24 03:58:01;;;;;;;2.08;1.83;;;;;;;18.81;90.25;94613.44;4981961;28;20250;-83
2022/05/24 04:00:30;;;;;;;5.22;2.40;;;;;;;18.80;90.54;94617.88;4972959;28;20603;-81
2022/05/24 04:02:57;;;;;;;2.95;1.98;;;;;;;18.84;90.37;94611.13;4981744;28;20303;-81
2022/05/24 04:05:24;;;;;;;2.88;1.95;;;;;;;18.82;89.71;94615.03;4985257;28;20652;-82
2022/05/24 04:07:50;;;;;;;2.08;1.80;;;;;;;18.83;89.50;94627.03;4982101;28;20199;-83
2022/05/24 04:10:19;;;;;;;2.92;2.00;;;;;;;18.84;88.69;94626.00;4979482;28;20250;-82
2022/05/24 04:12:46;;;;;;;2.95;2.17;;;;;;;18.85;89.25;94630.97;4985140;28;20227;-82
2022/05/24 04:15:14;;;;;;;2.90;2.28;;;;;;;18.81;89.17;94632.50;4985967;28;20223;-81
2022/05/24 04:17:41;;;;;;;3.03;2.00;;;;;;;18.81;88.86;94629.09;4985386;28;20208;-82
2022/05/24 04:20:08;;;;;;;2.38;2.03;;;;;;;18.76;88.65;94632.44;4979363;28;20296;-83
2022/05/24 04:22:34;;;;;;;4.05;1.70;;;;;;;18.80;88.19;94630.91;4981241;28;20224;-82
2022/05/24 04:25:01;;;;;;;2.60;1.88;;;;;;;18.84;87.17;94637.22;4976213;28;20645;-83
2022/05/24 04:27:29;;;;;;;3.05;1.80;;;;;;;18.87;87.20;94635.91;4984431;28;20204;-81
2022/05/24 04:29:56;;;;;;;3.83;1.83;;;;;;;18.92;87.55;94634.13;4979806;28;20239;-81
2022/05/24 04:32:22;;;;;;;3.03;1.80;;;;;;;18.88;87.01;94637.47;4984550;28;20231;-81
2022/05/24 04:34:49;;;;;;;2.53;1.90;;;;;;;18.90;86.79;94636.19;4987403;28;20227;-83
2022/05/24 04:37:15;;;;;;;2.75;1.60;;;;;;;18.97;86.34;94644.59;4975626;28;20209;-82
2022/05/24 04:39:42;;;;;;;3.17;1.83;;;;;;;18.95;85.45;94651.88;4978983;28;20710;-83
2022/05/24 04:42:21;;;;;;;3.85;2.00;;;;;;;18.89;85.47;94652.88;4959122;28;20228;-80
2022/05/24 04:44:51;;;;;;;2.63;1.90;;;;;;;18.90;86.05;94656.25;4971324;28;20235;-83
2022/05/24 04:47:18;;;;;;;1.88;1.50;;;;;;;18.85;87.65;94656.25;4985806;28;20266;-84
2022/05/24 04:49:50;;;;;;;3.03;1.75;;;;;;;18.82;87.90;94648.91;4975556;28;20215;-84
2022/05/24 04:52:16;;;;;;;3.80;1.90;;;;;;;18.87;87.54;94648.94;4981449;28;20802;-83
2022/05/24 04:54:44;;;;;;;2.17;1.98;;;;;;;18.92;86.82;94654.19;4980201;28;20232;-80
2022/05/24 04:57:11;;;;;;;3.97;1.88;;;;;;;18.93;86.43;94661.78;4993622;28;20191;-82
2022/05/24 04:59:49;;;;;;;2.72;2.10;;;;;;;19.00;85.92;94656.34;4987326;28;20224;-82
2022/05/24 05:02:17;;;;;;;2.63;1.95;;;;;;;19.03;86.20;94660.28;4990728;28;20254;-81
2022/05/24 05:04:43;;;;;;;2.75;2.10;;;;;;;19.07;86.12;94659.50;4993427;28;20295;-82
2022/05/24 05:07:10;;;;;;;2.50;1.85;;;;;;;19.05;84.64;94660.81;5000207;28;20231;-81
2022/05/24 05:09:38;;;;;;;4.70;2.35;;;;;;;19.12;84.58;94656.16;4990048;28;20290;-81
2022/05/24 05:12:06;;;;;;;2.70;1.90;;;;;;;19.11;83.82;94649.34;4985574;28;20207;-81
2022/05/24 05:14:32;;;;;;;3.72;2.30;;;;;;;19.14;84.41;94654.06;4986521;28;20204;-81
2022/05/24 05:16:59;;;;;;;2.85;1.80;;;;;;;19.09;83.73;94654.03;5001963;28;20204;-81
2022/05/24 05:19:27;;;;;;;2.72;1.83;;;;;;;19.12;83.72;94658.75;5000460;28;20228;-81
2022/05/24 05:21:54;;;;;;;1.92;1.80;;;;;;;19.14;84.26;94657.47;4986284;28;20224;-80
2022/05/24 05:24:21;;;;;;;2.60;1.83;;;;;;;19.16;84.52;94663.22;4985305;28;20226;-81
2022/05/24 05:26:47;;;;;;;2.72;2.40;;;;;;;19.16;84.29;94660.63;4984622;28;20283;-81
2022/05/24 05:29:14;;;;;;;5.75;4.50;;;;;;;19.21;84.56;94657.25;4984686;28;20255;-81
2022/05/24 05:31:39;;;;;;;3.55;2.90;;;;;;;19.22;84.42;94667.44;4984101;28;20297;-81
2022/05/24 05:34:06;;;;;;;3.85;2.20;;;;;;;19.23;85.25;94668.22;4984897;28;20204;-80
2022/05/24 05:36:35;;;;;;;3.25;2.10;;;;;;;19.14;86.27;94672.34;4983875;28;20256;-81
2022/05/24 05:39:02;;;;;;;2.50;2.05;;;;;;;19.20;86.42;94674.75;4984782;28;20219;-82
2022/05/24 05:41:31;;;;;;;4.07;2.05;;;;;;;19.31;85.98;94668.53;4984344;28;20234;-81
2022/05/24 05:43:58;;;;;;;5.45;2.22;;;;;;;19.42;84.89;94671.22;4982993;28;20219;-80
2022/05/24 05:46:24;;;;;;;4.22;2.15;;;;;;;19.40;84.97;94670.66;4985211;28;20224;-80
2022/05/24 05:48:51;;;;;;;2.85;2.00;;;;;;;19.36;84.53;94665.16;4984251;28;20235;-80
2022/05/24 05:51:19;;;;;;;2.47;2.00;;;;;;;19.36;84.74;94675.59;4984025;28;20251;-81
2022/05/24 05:53:47;;;;;;;2.47;2.28;;;;;;;19.34;84.57;94672.47;4983721;28;20238;-82
2022/05/24 05:56:16;;;;;;;3.50;2.20;;;;;;;19.30;85.58;94671.38;4983288;28;20232;-81
2022/05/24 05:58:43;;;;;;;2.70;2.03;;;;;;;19.33;85.92;94673.50;4982563;28;20208;-81
2022/05/24 06:01:15;;;;;;;2.78;1.98;;;;;;;19.41;85.54;94680.06;4973370;28;20223;-84
2022/05/24 06:03:42;;;;;;;4.93;2.10;;;;;;;19.46;83.31;94686.09;4973462;28;20204;-82
2022/05/24 06:06:10;;;;;;;2.45;1.83;;;;;;;19.42;84.15;94692.88;4981271;28;20259;-82
2022/05/24 06:08:37;;;;;;;2.22;2.00;;;;;;;19.45;84.25;94692.34;4983841;28;20291;-83
2022/05/24 06:11:05;;;;;;;5.63;2.17;;;;;;;19.45;83.89;94700.19;4982989;28;20279;-82
2022/05/24 06:13:31;;;;;;;3.65;2.10;;;;;;;19.49;84.06;94703.88;4983265;28;20239;-80
2022/05/24 06:15:59;;;;;;;4.38;2.20;;;;;;;19.55;83.63;94696.88;4983609;28;20247;-81
2022/05/24 06:18:26;;;;;;;5.78;2.03;;;;;;;19.48;84.50;94696.28;4982785;28;20207;-81
2022/05/24 06:20:52;;;;;;;2.40;2.20;;;;;;;19.43;85.08;94704.91;4982209;28;20227;-81
2022/05/24 06:23:18;;;;;;;3.80;2.22;;;;;;;19.43;84.52;94722.38;4984815;28;20200;-83
2022/05/24 06:25:45;;;;;;;2.25;1.65;;;;;;;19.36;84.14;94722.59;4984682;28;20636;-83
2022/05/24 06:28:15;;;;;;;2.70;1.58;;;;;;;19.30;83.64;94727.00;4984143;28;20208;-82
2022/05/24 06:30:41;;;;;;;1.80;1.50;;;;;;;19.29;84.38;94729.84;4983576;28;20200;-82
2022/05/24 06:33:08;;;;;;;3.58;1.90;;;;;;;19.28;84.29;94730.88;4983426;28;20584;-83
2022/05/24 06:35:36;;;;;;;1.70;1.60;;;;;;;19.20;85.42;94726.94;4983722;28;20326;-79
2022/05/24 06:38:02;;;;;;;4.80;1.80;;;;;;;19.15;84.33;94721.69;4980828;28;20263;-82
2022/05/24 06:40:29;;;;;;;1.70;1.60;;;;;;;19.11;84.62;94712.78;4981709;28;20295;-81
2022/05/24 06:42:56;;;;;;;3.42;2.00;;;;;;;19.04;85.71;94717.44;4983013;28;20252;-83
2022/05/24 06:45:23;;;;;;;1.98;1.75;;;;;;;19.04;86.63;94727.88;4998325;28;20231;-82
2022/05/24 06:47:50;;;;;;;3.97;2.17;;;;;;;19.11;86.17;94725.81;4997214;28;20262;-81
2022/05/24 06:50:17;;;;;;;2.72;2.15;;;;;;;19.17;86.34;94732.66;4988897;28;20222;-81
2022/05/24 06:52:44;;;;;;;5.25;2.42;;;;;;;19.19;87.34;94735.81;4987719;28;20220;-82
2022/05/24 06:55:11;;;;;;;4.50;2.17;;;;;;;19.19;87.13;94725.34;4994739;28;20223;-82
2022/05/24 06:57:38;;;;;;;2.47;2.10;;;;;;;19.18;87.05;94741.28;4997204;28;20208;-83
2022/05/24 07:03:00;;;;;;;3.55;2.28;;;;;;;19.10;87.69;94746.94;4985263;28;20243;-82
2022/05/24 07:05:26;;;;;;;3.08;2.15;;;;;;;18.94;89.15;94762.47;4987423;28;20222;-83
2022/05/24 07:07:53;;;;;;;3.20;1.92;;;;;;;18.73;89.20;94765.16;4981425;28;20626;-83
2022/05/24 07:10:19;;;;;;;2.45;2.13;;;;;;;18.76;89.28;94759.44;4986902;28;20204;-82
2022/05/24 07:12:46;;;;;;;2.35;2.15;;;;;;;18.74;88.37;94753.69;4983302;28;20282;-83
2022/05/24 07:15:13;;;;;;;4.05;2.00;;;;;;;18.72;88.68;94761.75;4983058;28;20299;-83
2022/05/24 07:17:39;;;;;;;3.30;2.22;;;;;;;18.67;87.70;94773.94;4981205;28;20290;-84
2022/05/24 07:20:09;;;;;;;3.40;2.13;;;;;;;18.73;87.37;94778.19;4979323;28;20220;-83
2022/05/24 07:22:39;;;;;;;2.33;2.00;;;;;;;18.70;88.84;94782.06;4985428;28;20223;-83
2022/05/24 07:25:06;;;;;;;3.25;1.92;;;;;;;18.76;87.16;94782.91;4959181;28;20227;-82
2022/05/24 07:27:33;;;;;;;2.78;2.20;;;;;;;18.84;85.98;94792.91;4981303;28;20223;-83
2022/05/24 07:29:59;;;;;;;4.50;2.28;;;;;;;18.86;86.63;94793.44;4990369;28;20226;-82
2022/05/24 07:32:26;;;;;;;2.42;2.20;;;;;;;18.76;85.26;94795.97;4987541;28;20262;-84
2022/05/24 07:34:52;;;;;;;2.70;1.90;;;;;;;18.74;85.56;94805.84;4981225;28;20238;-83
2022/05/24 07:37:21;;;;;;;4.63;2.00;;;;;;;18.65;85.55;94820.38;4990983;28;20203;-83
2022/05/24 07:39:47;;;;;;;3.85;2.30;;;;;;;18.59;86.58;94819.53;4984641;28;20224;-81
2022/05/24 07:47:42;;;;;;;2.65;1.90;;;;;;;18.23;89.37;94826.13;4986310;28;20214;-82
2022/05/24 07:50:11;;;;;;;2.63;2.17;;;;;;;18.29;89.57;94823.31;4986182;28;20191;-80
2022/05/24 07:52:41;;;;;;;3.60;2.70;;;;;;;18.27;90.23;94829.81;4977439;28;20310;-81
2022/05/24 07:55:09;;;;;;;4.80;2.40;;;;;;;18.19;90.81;94841.44;4986997;28;20227;-82
2022/05/24 07:57:38;;;;;;;2.97;1.88;;;;;;;18.11;90.15;94848.88;4975148;28;20579;-82
2022/05/24 08:00:07;;;;;;;3.08;2.03;;;;;;;18.08;90.84;94850.19;4976458;28;20217;-84
2022/05/24 08:02:35;;;;;;;6.20;2.22;;;;;;;18.14;90.74;94851.81;4973316;28;20228;-81
2022/05/24 08:05:02;;;;;;;4.65;1.98;;;;;;;18.16;90.29;94860.16;4980666;28;20706;-83
2022/05/24 08:07:33;;;;;;;3.33;1.88;;;;;;;18.24;90.10;94851.94;4982746;28;20212;-84
2022/05/24 08:10:02;;;;;;;2.88;1.80;;;;;;;18.31;89.91;94854.34;4986457;28;20723;-81
2022/05/24 08:12:28;;;;;;;3.08;2.40;;;;;;;18.33;89.88;94856.72;4986953;28;20234;-82
2022/05/24 08:14:55;;;;;;;2.97;1.95;;;;;;;18.34;90.10;94873.94;4982730;28;20231;-83
2022/05/24 08:17:22;;;;;;;3.47;1.90;;;;;;;18.38;90.96;94868.00;4985071;28;20938;-83
2022/05/24 08:19:50;;;;;;;2.15;1.90;;;;;;;18.37;90.65;94865.63;4979293;28;20668;-82
2022/05/24 08:22:17;;;;;;;2.33;2.10;;;;;;;18.35;91.42;94876.28;4985044;28;20219;-82
2022/05/24 08:24:46;;;;;;;3.25;2.10;;;;;;;18.26;92.14;94878.56;4982767;28;20456;-83
2022/05/24 08:27:16;;;;;;;1.92;1.73;;;;;;;18.25;91.47;94889.22;4980125;28;20207;-84
2022/05/24 08:29:44;;;;;;;3.25;1.70;;;;;;;18.13;90.01;94889.31;4983376;28;20282;-84
2022/05/24 08:32:11;;;;;;;1.80;1.70;;;;;;;18.19;90.47;94896.16;4985610;28;20219;-82
2022/05/24 08:34:38;;;;;;;1.98;1.75;;;;;;;18.15;89.45;94902.09;4983687;28;20731;-83
2022/05/24 08:37:05;;;;;;;1.90;1.80;;;;;;;18.11;89.74;94903.59;4971225;28;20227;-83
2022/05/24 08:39:32;;;;;;;2.42;1.80;;;;;;;18.12;89.92;94900.75;4984229;28;20717;-81
2022/05/24 08:42:05;;;;;;;3.70;1.73;;;;;;;18.19;89.03;94893.56;4984718;28;20223;-83
2022/05/24 08:50:11;;;;;;;2.50;1.73;;;;;;;18.47;87.76;94902.25;4964081;28;20195;-82
2022/05/24 08:52:42;;;;;;;3.58;1.60;;;;;;;18.46;87.72;94911.91;4988148;28;20322;-81
2022/05/24 08:55:12;;;;;;;1.92;1.70;;;;;;;18.41;87.88;94905.81;4985026;28;20258;-83
2022/05/24 08:57:45;;;;;;;4.05;1.52;;;;;;;18.45;85.28;94910.31;4989034;28;20618;-84
2022/05/24 09:00:20;;;;;;;3.10;1.70;;;;;;;18.50;85.62;94904.38;4985994;28;20227;-81
2022/05/24 09:02:48;;;;;;;1.67;1.40;;;;;;;18.53;84.17;94906.50;4988386;28;20754;-83
2022/05/24 09:05:19;;;;;;;3.30;1.52;;;;;;;18.53;83.93;94896.06;4982605;28;20230;-84
2022/05/24 09:07:56;;;;;;;2.25;1.48;;;;;;;18.51;85.37;94896.31;4986711;28;20195;-83
2022/05/24 09:10:27;;;;;;;2.10;1.60;;;;;;;18.41;85.02;94905.81;4984809;28;20247;-82
2022/05/24 09:13:15;;;;;;;1.75;1.60;;;;;;;18.39;84.34;94903.47;4990671;28;20215;-83
2022/05/24 09:15:49;;;;;;;2.30;1.52;;;;;;;18.29;83.91;94891.06;4990799;28;20585;-84
2022/05/24 09:18:26;;;;;;;2.58;1.50;;;;;;;18.35;83.33;94897.16;4975551;28;20203;-83
2022/05/24 09:20:53;;;;;;;2.72;1.58;;;;;;;18.42;83.17;94886.56;4973501;28;20224;-83
2022/05/24 09:23:25;;;;;;;1.75;1.40;;;;;;;18.49;83.27;94885.31;4974763;28;20208;-83
2022/05/24 09:25:56;;;;;;;1.50;1.40;;;;;;;18.58;83.33;94886.50;4985738;28;20224;-83
2022/05/24 09:28:43;;;;;;;3.83;1.90;;;;;;;18.57;83.06;94900.56;4975042;28;20208;-82
2022/05/24 09:31:17;;;;;;;2.40;1.95;;;;;;;18.58;83.67;94902.13;4975096;28;20223;-81
2022/05/24 09:33:44;;;;;;;2.35;1.67;;;;;;;18.57;82.58;94904.97;4977626;28;20262;-84
2022/05/24 09:36:25;;;;;;;2.53;1.33;;;;;;;18.57;81.64;94908.38;4983437;28;20219;-82
2022/05/24 09:38:51;;;;;;;4.43;1.70;;;;;;;18.69;82.14;94907.47;4980284;28;20249;-83
2022/05/24 09:41:22;;;;;;;3.22;1.42;;;;;;;18.72;81.27;94909.63;4978517;28;20220;-83
2022/05/24 09:44:03;;;;;;;2.97;2.03;;;;;;;18.70;81.24;94920.28;4979922;28;20212;-84
2022/05/24 09:46:46;;;;;;;2.88;1.58;;;;;;;18.62;81.02;94926.72;4989488;28;20226;-83
2022/05/24 09:49:23;;;;;;;2.15;1.60;;;;;;;18.44;79.99;94932.22;4974961;28;20211;-83
2022/05/24 09:51:54;;;;;;;2.13;1.67;;;;;;;18.44;81.08;94931.41;4982315;28;20224;-81
2022/05/24 09:54:26;;;;;;;2.53;1.45;;;;;;;18.36;80.30;94932.59;4980648;28;20203;-83
2022/05/24 09:57:02;;;;;;;2.08;1.50;;;;;;;18.38;80.48;94927.94;4979896;28;20223;-83
2022/05/24 09:59:29;;;;;;;3.92;1.55;;;;;;;18.41;80.54;94940.50;4983099;28;20203;-84
2022/05/24 10:01:57;;;;;;;2.15;1.52;;;;;;;18.37;81.45;94930.78;4984716;28;20232;-83
2022/05/24 10:04:27;;;;;;;1.92;1.70;;;;;;;18.36;82.28;94932.59;4983504;28;20200;-84
2022/05/24 10:06:57;;;;;;;2.75;1.60;;;;;;;18.41;82.55;94931.91;4987205;28;20254;-82
2022/05/24 10:09:40;;;;;;;5.07;1.73;;;;;;;18.41;83.58;94944.94;4986469;28;20294;-82
2022/05/24 10:12:13;;;;;;;2.08;1.60;;;;;;;18.45;83.15;94938.22;4973404;28;20220;-82
2022/05/24 10:14:48;;;;;;;2.72;1.48;;;;;;;18.49;81.81;94940.06;4978094;28;20199;-82
2022/05/24 10:17:27;;;;;;;3.28;1.33;;;;;;;18.58;82.09;94943.84;4979789;28;20215;-83
2022/05/24 10:20:03;;;;;;;2.13;1.50;;;;;;;18.62;82.14;94952.03;4975891;28;20227;-83
2022/05/24 10:22:44;;;;;;;1.63;1.35;;;;;;;18.76;82.73;94952.44;4975974;28;20235;-83
2022/05/24 10:25:18;;;;;;;3.05;1.50;;;;;;;18.75;81.18;94953.47;4970427;28;20269;-83
2022/05/24 10:28:02;;;;;;;3.22;1.50;;;;;;;18.74;79.20;94957.88;4984607;28;20199;-82
2022/05/24 10:30:33;;;;;;;3.47;1.52;;;;;;;18.76;79.67;94958.44;4975310;28;20263;-82
2022/05/24 10:39:12;;;;;;;4.38;1.40;;;;;;;18.52;80.59;94972.69;4978372;28;20250;-83
2022/05/24 10:41:53;;;;;;;2.15;1.30;;;;;;;18.33;79.27;94964.38;4973321;28;20298;-82
2022/05/24 10:44:24;;;;;;;2.05;1.30;;;;;;;18.23;81.08;94966.84;4974284;28;20944;-80
2022/05/24 10:47:00;;;;;;;2.72;1.55;;;;;;;18.35;80.21;94964.13;4972369;28;20224;-82
2022/05/24 10:49:34;;;;;;;1.83;1.45;;;;;;;18.52;80.05;94957.06;4982242;28;20606;-82
2022/05/24 10:52:06;;;;;;;2.63;1.55;;;;;;;18.61;79.72;94961.66;4969741;28;20852;-80
2022/05/24 10:54:41;;;;;;;2.08;1.23;;;;;;;18.66;79.78;94966.16;4962694;28;20208;-82
2022/05/24 10:57:13;;;;;;;3.72;1.40;;;;;;;18.62;79.85;94963.25;4974781;28;20203;-80
2022/05/24 10:59:46;;;;;;;1.40;1.30;;;;;;;18.59;80.03;94966.31;4982435;28;20235;-81
2022/05/24 11:02:20;;;;;;;1.75;1.50;;;;;;;18.59;78.95;94966.31;4976993;28;20223;-82
2022/05/24 11:04:53;;;;;;;1.98;1.58;;;;;;;18.56;80.63;94965.97;4983575;28;20208;-82
2022/05/24 11:07:21;;;;;;;2.47;1.50;;;;;;;18.57;80.78;94968.34;4975532;28;20699;-82
2022/05/24 11:09:54;;;;;;;1.58;1.48;;;;;;;18.66;79.97;94965.38;4980429;28;20227;-81
2022/05/24 11:12:26;;;;;;;2.22;1.60;;;;;;;18.67;77.54;94966.91;4981159;28;20271;-80
2022/05/24 11:14:57;;;;;;;1.77;1.60;;;;;;;18.63;78.19;94969.25;4987200;28;20227;-82
2022/05/24 11:17:24;;;;;;;2.25;1.30;;;;;;;18.55;78.96;94969.63;4974017;28;20204;-82
2022/05/24 11:19:54;;;;;;;2.58;1.85;;;;;;;18.55;78.92;94975.63;4977971;28;20208;-83
2022/05/24 11:22:27;;;;;;;4.10;1.67;;;;;;;18.64;79.48;94970.81;4980719;28;20235;-80
2022/05/24 11:25:01;;;;;;;4.25;1.38;;;;;;;18.66;80.21;94968.75;4984285;28;20251;-83
2022/05/24 11:27:31;;;;;;;1.80;1.40;;;;;;;18.63;79.04;94974.44;4956860;28;20208;-82
2022/05/24 11:30:01;;;;;;;2.08;1.80;;;;;;;18.50;78.44;94975.53;4988338;28;20254;-82
2022/05/24 11:32:35;;;;;;;1.60;1.50;;;;;;;18.47;79.29;94975.25;4978908;28;20224;-80
2022/05/24 11:35:08;;;;;;;2.50;1.40;;;;;;;18.40;79.45;94979.84;4986377;28;20226;-81
2022/05/24 11:37:36;;;;;;;1.95;1.50;;;;;;;18.33;79.45;94974.78;4987491;28;20823;-82
2022/05/24 11:40:25;;;;;;;2.10;1.60;;;;;;;18.39;81.31;94984.25;4979372;28;20731;-81
2022/05/24 11:42:54;;;;;;;1.63;1.50;;;;;;;18.45;81.28;94991.13;4982405;28;20228;-81
2022/05/24 11:45:54;;;;;;;3.38;1.55;;;;;;;18.48;78.83;94992.44;4988662;28;20649;-83
2022/05/24 11:48:21;;;;;;;1.95;1.63;;;;;;;18.48;80.33;94982.81;4987242;28;20478;-83
2022/05/24 11:50:51;;;;;;;1.85;1.70;;;;;;;18.55;82.51;94990.47;4975044;28;20772;-82
2022/05/24 11:53:37;;;;;;;4.80;1.80;;;;;;;18.65;83.03;94985.44;4975503;28;20236;-83
2022/05/24 11:56:24;;;;;;;3.05;1.67;;;;;;;18.68;82.18;94987.53;4973328;28;20232;-82
2022/05/24 11:58:57;;;;;;;2.33;1.73;;;;;;;18.77;81.25;95006.19;4983468;28;20196;-82
2022/05/24 12:01:43;;;;;;;3.33;1.60;;;;;;;18.68;81.84;94997.97;4981175;28;20236;-83
2022/05/24 12:10:49;;;;;;;2.15;1.88;;;;;;;18.59;80.10;94997.63;4975273;28;20354;-82
2022/05/24 12:13:33;;;;;;;1.85;1.60;;;;;;;18.58;82.19;95008.25;4975033;28;20652;-82
2022/05/24 12:16:03;;;;;;;4.18;2.17;;;;;;;18.43;87.77;95032.28;4974472;28;20240;-82
2022/05/24 12:18:40;;;;;;;2.88;2.15;;;;;;;18.17;89.30;95038.94;4974602;28;20208;-83
2022/05/24 12:21:07;;;;;;;3.08;2.17;;;;;;;17.95;89.91;95061.47;4973908;28;20235;-82
2022/05/24 12:23:39;;;;;;;1.75;1.50;;;;;;;17.83;87.96;95051.13;4975074;28;20592;-82